Gore Bay Manitoulin Airport
CYZE : now visible

Airfield :











YOU CAN JOIN US ON...

 
LOGIN :

Register | Disclaimer

   EN    FR    IT 

 









Legend :    VFR   Marginal VFR   IFR   Intensive IFR   Very Intensive IFR
Visi :
Ceiling :
>= 8 km
>= 3000ft
5 to 8 km
1000 to 3000 ft
1500m to 5 km
500 to 1000 ft
800 to 1500m
200 to 500 ft
< 800m
< 200 ft
Symbols :   Thunderstorms  Fog  Heavy snow  Heavy precipitations  Wind > 20 kt






- Airport Elevation : 635 ft
- IATA code : YZE


CYZE - Gore Bay Manitoulin

CURRENT METAR :
  • 141713Z AUTO 26011KT 6SM -SN BKN014 BKN022 OVC029 M01/M02 A3003 RMK SLP182

EXPIRED METARs :
  • 141704Z AUTO 26010KT 5SM -SN BKN014 OVC022 M01/M02 A3003 RMK SLP182
  • 141635Z AUTO 26010G15KT 9SM -SN BKN018 OVC024 M00/M03 A3003 RMK SLP182

TAF TAF CYZE
Valid from the 14 at 14:00 until the 14 at 23:00 UTC


141339Z 1414/1423 27012KT P6SM -SHSN SCT020 OVC030
TEMPO 1414/1420 2SM -SHSN BKN020 OVC030
FM142000 26012G22KT P6SM BKN030 RMK FCST BASED ON AUTO OBS. NXT FCST BY 142000Z



MET'MAP, your aeronautical weather chart ! - Copyright ORBIFLY December 2007 - Disclaimer

ORBIFLY MET'MAP TEAM :

Programming & Development : Alexandra Zaïnal
Concept & Development : Baudouin d'Aumeries
Co-Development & Prog : Marc-Olivier Méhu
Technical & hardware support : Manuel Goepfert

Contact : metmap@orbifly.com




SOURCES & CREDITS :

   NOAA       Earth
Advisory